首页
METAR-TAF:

METAR-TAF

机场 :

拉紹德封, 瑞士

纬度: 47-05-03N, 经度: 006-47-37E, 海拔: 1027米

当前天气观测

该预报发布于19分钟前的09:20 UTC
风速3节,风向,在西转西北北转东北之间变化
温度 3°C
湿度 87%
气压 1018 hPa
能见度10公里或以上
散云层高于800英尺
散云层高于1000英尺
多云层高于2700英尺

METAR: LSGC 050920Z AUTO 35003KT 300V030 9999 SCT008 SCT010 BKN027 03/01 Q1018

时间: 10:39 (09:39 UTC)

预报

该预报发布于1小时和14分钟前的08:25 UTC
预报有效从05日的 09点(UTC)到 05日的 18点(UTC)
风速2节,风向多变
能见度10公里或以上
多云层高于800英尺
成为
从 05日的 11点(UTC)到 05日的 13点(UTC)
风速10节,风向东北

TAF: LSGC 050825Z 0509/0518 VRB02KT 9999 BKN008 BECMG 0511/0513 04010KT

超过4000个机场的气象观测和天气预报(METAR&TAF报告)。

可查询的气象台以黄色和红色小点在地图上表示。

将鼠标移到小点上方,可查看气象台名称。

然后点击查看天气观测和预报。

如需切换地图:点击带黑十字的绿色按钮放大地图;点击带横线的绿色按钮缩小地图;或者点击绿色箭头查看邻近地区的地图。


METAR-TAF: